createdAt,value
2016-09-06T00:00:17.238Z,19.98
2016-09-06T00:01:16.824Z,20.05
2016-09-06T00:02:16.820Z,20.06
2016-09-06T00:03:16.775Z,20.15
2016-09-06T00:04:16.744Z,20.2
2016-09-06T00:05:16.719Z,20.16
2016-09-06T00:06:17.112Z,20.12
2016-09-06T00:07:16.669Z,20.2
2016-09-06T00:08:16.629Z,20.12
2016-09-06T00:09:16.972Z,20.12
2016-09-06T00:10:16.604Z,20.09
2016-09-06T00:11:16.578Z,20.1
2016-09-06T00:12:16.521Z,20.13
2016-09-06T00:13:16.522Z,20.16
2016-09-06T00:14:16.496Z,20.09
2016-09-06T00:15:16.468Z,20.02
2016-09-06T00:16:16.790Z,20.1
2016-09-06T00:17:16.405Z,20.08
2016-09-06T00:18:16.379Z,20.1
2016-09-06T00:19:31.089Z,20.15
2016-09-06T00:20:16.333Z,20.15
2016-09-06T00:21:31.015Z,20.18
2016-09-06T00:22:16.666Z,20.27
2016-09-06T00:23:16.246Z,20.15
2016-09-06T00:24:16.217Z,20.28
2016-09-06T00:25:16.218Z,20.53
2016-09-06T00:26:16.170Z,20.74
2016-09-06T00:27:16.166Z,20.56
2016-09-06T00:28:16.153Z,20.56
2016-09-06T00:29:16.180Z,20.41
2016-09-06T00:30:16.539Z,20.3
2016-09-06T00:31:16.042Z,20.39
2016-09-06T00:32:16.421Z,20.3
2016-09-06T00:33:16.009Z,20.23
2016-09-06T00:34:15.988Z,20.16
2016-09-06T00:35:15.935Z,20.02
2016-09-06T00:36:15.912Z,20.05
2016-09-06T00:37:30.632Z,20.03
2016-09-06T00:38:15.999Z,20.03
2016-09-06T00:39:30.555Z,19.87
2016-09-06T00:40:15.812Z,20.03
2016-09-06T00:41:15.807Z,20
2016-09-06T00:42:15.782Z,20.06
2016-09-06T00:43:16.167Z,20.09
2016-09-06T00:44:15.702Z,20.23
2016-09-06T00:45:15.677Z,20.21
2016-09-06T00:46:15.669Z,20.24
2016-09-06T00:47:15.647Z,20.25
2016-09-06T00:48:15.640Z,20.27
2016-09-06T00:49:15.585Z,20.28
2016-09-06T00:50:15.560Z,20.1
2016-09-06T00:51:30.252Z,20.09
2016-09-06T00:52:15.537Z,20.31
2016-09-06T00:53:30.206Z,20.28
2016-09-06T00:54:15.471Z,20.27
2016-09-06T00:56:15.429Z,20.31
2016-09-06T00:57:15.387Z,20.25
2016-09-06T00:58:15.363Z,20.24
2016-09-06T00:59:15.331Z,20.12
2016-09-06T01:00:15.304Z,20.06
2016-09-06T01:01:15.483Z,20.02
2016-09-06T01:02:15.342Z,19.9
2016-09-06T01:03:15.228Z,19.93
2016-09-06T01:04:15.205Z,19.9
2016-09-06T01:05:15.170Z,19.76
2016-09-06T01:06:15.172Z,19.84
2016-09-06T01:07:15.832Z,19.76
2016-09-06T01:08:15.090Z,20.02
2016-09-06T01:09:15.133Z,20
2016-09-06T01:10:15.052Z,20.28
2016-09-06T01:11:15.017Z,20.56
2016-09-06T01:12:15.013Z,20.35
2016-09-06T01:13:14.988Z,20.24
2016-09-06T01:14:14.932Z,20.1
2016-09-06T01:15:29.635Z,20.03
2016-09-06T01:16:14.886Z,20.1
2016-09-06T01:17:14.877Z,20.03
2016-09-06T01:18:14.843Z,20.02
2016-09-06T01:19:14.850Z,20.05
2016-09-06T01:20:14.798Z,20.31
2016-09-06T01:21:14.757Z,20.61
2016-09-06T01:22:14.739Z,20.72
2016-09-06T01:23:14.711Z,20.69
2016-09-06T01:24:14.733Z,20.46
2016-09-06T01:25:14.681Z,20.27
2016-09-06T01:27:14.636Z,20.18
2016-09-06T01:28:14.609Z,20.1
2016-09-06T01:29:14.577Z,20.09
2016-09-06T01:30:14.554Z,20.15
2016-09-06T01:31:14.542Z,20.02
2016-09-06T01:32:14.473Z,20
2016-09-06T01:33:14.450Z,19.94
2016-09-06T01:34:14.430Z,19.87
2016-09-06T01:35:14.400Z,20.1
2016-09-06T01:36:14.375Z,20.15
2016-09-06T01:37:14.355Z,20
2016-09-06T01:38:14.353Z,19.91
2016-09-06T01:39:14.308Z,19.87
2016-09-06T01:40:14.292Z,19.76
2016-09-06T01:42:14.237Z,19.86
2016-09-06T01:43:14.641Z,19.9
2016-09-06T01:44:14.160Z,19.87
2016-09-06T01:45:28.910Z,19.79
2016-09-06T01:46:14.432Z,19.68
2016-09-06T01:47:14.141Z,19.69
2016-09-06T01:48:14.072Z,19.65
2016-09-06T01:49:14.034Z,19.63
2016-09-06T01:50:14.037Z,19.66
2016-09-06T01:51:13.996Z,19.66
2016-09-06T01:52:28.981Z,19.53
2016-09-06T01:53:13.950Z,19.42
2016-09-06T01:54:13.923Z,19.42
2016-09-06T01:55:13.892Z,19.46
2016-09-06T01:56:13.868Z,19.54
2016-09-06T01:57:13.857Z,19.48
2016-09-06T01:58:13.829Z,19.43
2016-09-06T01:59:13.803Z,19.38
2016-09-06T02:00:13.754Z,19.43
2016-09-06T02:01:13.829Z,19.47
2016-09-06T02:02:13.717Z,19.4
2016-09-06T02:03:28.402Z,19.42
2016-09-06T02:04:13.646Z,19.29
2016-09-06T02:05:13.622Z,19.32
2016-09-06T02:06:13.625Z,19.35
2016-09-06T02:07:13.596Z,19.48
2016-09-06T02:08:13.994Z,19.48
2016-09-06T02:09:13.539Z,19.61
2016-09-06T02:10:28.513Z,19.76
2016-09-06T02:11:13.483Z,19.73
2016-09-06T02:12:28.171Z,19.65
2016-09-06T02:13:13.418Z,19.61
2016-09-06T02:14:13.397Z,19.46
2016-09-06T02:15:13.452Z,19.43
2016-09-06T02:16:13.341Z,19.54
2016-09-06T02:17:13.377Z,19.51
2016-09-06T02:18:13.295Z,19.48
2016-09-06T02:19:13.295Z,19.36
2016-09-06T02:20:13.638Z,19.46
2016-09-06T02:21:13.236Z,19.53
2016-09-06T02:22:13.204Z,19.63
2016-09-06T02:23:13.206Z,19.83
2016-09-06T02:24:13.160Z,19.58
2016-09-06T02:25:13.139Z,19.55
2016-09-06T02:26:13.080Z,19.39
2016-09-06T02:27:13.064Z,19.46
2016-09-06T02:28:13.046Z,19.38
2016-09-06T02:29:13.666Z,19.36
2016-09-06T02:30:13.104Z,19.4
2016-09-06T02:31:12.971Z,19.35
2016-09-06T02:32:12.957Z,19.25
2016-09-06T02:33:12.910Z,19.23
2016-09-06T02:34:12.879Z,19.28
2016-09-06T02:35:12.855Z,19.15
2016-09-06T02:36:12.979Z,19.2
2016-09-06T02:37:13.194Z,19.18
2016-09-06T02:38:12.786Z,19.18
2016-09-06T02:39:12.762Z,19.13
2016-09-06T02:40:12.721Z,19.2
2016-09-06T02:41:13.075Z,19.21
2016-09-06T02:42:12.683Z,19.14
2016-09-06T02:43:12.683Z,19.11
2016-09-06T02:44:12.648Z,19.21
2016-09-06T02:45:12.597Z,19.23
2016-09-06T02:46:12.570Z,19.21
2016-09-06T02:47:12.841Z,19.25
2016-09-06T02:48:12.876Z,19.2
2016-09-06T02:49:12.855Z,19.21
2016-09-06T02:50:12.475Z,19.2
2016-09-06T02:51:12.911Z,19.14
2016-09-06T02:52:12.414Z,19.18
2016-09-06T02:53:13.062Z,19.15
2016-09-06T02:54:12.366Z,19.24
2016-09-06T02:55:12.802Z,19.17
2016-09-06T02:56:12.306Z,19.14
2016-09-06T02:57:12.656Z,19.15
2016-09-06T02:58:12.651Z,19.18
2016-09-06T02:59:12.233Z,19.21
2016-09-06T03:00:12.205Z,19.28
2016-09-06T03:01:12.177Z,19.31
2016-09-06T03:02:12.154Z,19.29
2016-09-06T03:03:12.112Z,19.42
2016-09-06T03:04:12.101Z,19.31
2016-09-06T03:05:12.160Z,19.13
2016-09-06T03:06:12.075Z,19.11
2016-09-06T03:07:12.019Z,19.13
2016-09-06T03:08:12.373Z,19.02
2016-09-06T03:09:11.976Z,18.97
2016-09-06T03:10:26.977Z,18.97
2016-09-06T03:11:11.920Z,19.06
2016-09-06T03:12:11.986Z,18.99
2016-09-06T03:13:11.885Z,19.1
2016-09-06T03:14:11.819Z,19.18
2016-09-06T03:15:11.808Z,19.15
2016-09-06T03:16:11.777Z,19.14
2016-09-06T03:17:11.815Z,19.18
2016-09-06T03:18:11.724Z,19.13
2016-09-06T03:19:11.754Z,19.2
2016-09-06T03:20:12.036Z,19.28
2016-09-06T03:21:11.658Z,19.18
2016-09-06T03:22:12.314Z,19.21
2016-09-06T03:23:11.619Z,19.17
2016-09-06T03:24:11.607Z,18.99
2016-09-06T03:25:11.557Z,19.01
2016-09-06T03:26:11.520Z,19.02
2016-09-06T03:27:11.895Z,19.18
2016-09-06T03:28:11.476Z,19.17
2016-09-06T03:29:11.455Z,19.15
2016-09-06T03:30:11.409Z,19.23
2016-09-06T03:31:11.398Z,19.01
2016-09-06T03:32:11.378Z,19.11
2016-09-06T03:33:11.362Z,19.17
2016-09-06T03:34:11.308Z,19.18
2016-09-06T03:35:11.303Z,19.17
2016-09-06T03:36:11.259Z,19.17
2016-09-06T03:37:11.237Z,19.17
2016-09-06T03:38:11.235Z,19.14
2016-09-06T03:39:11.220Z,18.98
2016-09-06T03:40:11.148Z,19.14
2016-09-06T03:41:11.156Z,19.02
2016-09-06T03:42:11.549Z,19.11
2016-09-06T03:43:11.194Z,19.14
2016-09-06T03:44:11.059Z,19.17
2016-09-06T03:45:11.041Z,19.23
2016-09-06T03:46:26.016Z,19.24
2016-09-06T03:47:11.016Z,19.18
2016-09-06T03:48:25.657Z,19.11
2016-09-06T03:49:10.935Z,18.99
2016-09-06T03:50:25.635Z,18.99
2016-09-06T03:51:11.274Z,18.97
2016-09-06T03:52:10.893Z,19.01
2016-09-06T03:53:10.851Z,18.91
2016-09-06T03:54:10.829Z,18.91
2016-09-06T03:55:10.795Z,18.83
2016-09-06T03:56:10.743Z,18.91
2016-09-06T03:57:10.724Z,18.99
2016-09-06T03:58:11.094Z,19.11
2016-09-06T03:59:10.694Z,19.36
2016-09-06T04:00:10.660Z,19.42
2016-09-06T04:01:10.599Z,19.51
2016-09-06T04:02:10.616Z,19.46
2016-09-06T04:03:10.571Z,19.25
2016-09-06T04:04:10.586Z,19.25
2016-09-06T04:05:10.502Z,19.17
2016-09-06T04:06:25.207Z,19.21
2016-09-06T04:07:10.815Z,19.35
2016-09-06T04:08:25.144Z,19.43
2016-09-06T04:09:10.400Z,19.4
2016-09-06T04:10:26.071Z,19.23
2016-09-06T04:11:10.352Z,19.23
2016-09-06T04:13:10.341Z,18.94
2016-09-06T04:14:10.259Z,18.92
2016-09-06T04:15:10.280Z,18.98
2016-09-06T04:16:10.219Z,18.98
2016-09-06T04:17:10.241Z,19.06
2016-09-06T04:18:10.180Z,19.2
2016-09-06T04:19:10.150Z,19.38
2016-09-06T04:20:10.109Z,19.13
2016-09-06T04:21:10.128Z,19.17
2016-09-06T04:22:10.431Z,19.11
2016-09-06T04:23:10.024Z,18.98
2016-09-06T04:24:10.126Z,18.95
2016-09-06T04:25:10.029Z,18.94
2016-09-06T04:26:09.971Z,18.9
2016-09-06T04:27:09.978Z,18.99
2016-09-06T04:28:09.945Z,19.08
2016-09-06T04:29:09.877Z,19.02
2016-09-06T04:30:09.852Z,18.86
2016-09-06T04:31:09.871Z,18.87
2016-09-06T04:32:14.832Z,18.86
2016-09-06T04:33:09.778Z,18.7
2016-09-06T04:34:09.753Z,18.73
2016-09-06T04:35:09.933Z,18.67
2016-09-06T04:36:09.824Z,18.68
2016-09-06T04:37:09.649Z,18.72
2016-09-06T04:38:09.654Z,18.72
2016-09-06T04:39:09.636Z,18.73
2016-09-06T04:40:09.962Z,18.61
2016-09-06T04:41:09.554Z,18.58
2016-09-06T04:42:09.555Z,18.42
2016-09-06T04:43:09.515Z,18.47
2016-09-06T04:44:09.486Z,18.49
2016-09-06T04:45:24.649Z,18.49
2016-09-06T04:46:09.497Z,18.43
2016-09-06T04:47:24.153Z,18.55
2016-09-06T04:48:09.410Z,18.57
2016-09-06T04:49:09.365Z,18.54
2016-09-06T04:50:09.346Z,18.55
2016-09-06T04:51:09.352Z,18.52
2016-09-06T04:52:09.308Z,18.5
2016-09-06T04:53:09.254Z,18.54
2016-09-06T04:54:09.269Z,18.49
2016-09-06T04:55:09.205Z,18.46
2016-09-06T04:56:09.551Z,18.5
2016-09-06T04:57:09.518Z,18.54
2016-09-06T04:58:09.093Z,18.49
2016-09-06T04:59:09.117Z,18.59
2016-09-06T05:00:09.058Z,18.84
2016-09-06T05:01:09.080Z,18.83
2016-09-06T05:02:08.989Z,18.9
2016-09-06T05:03:08.982Z,18.87
2016-09-06T05:04:09.779Z,18.77
2016-09-06T05:05:08.934Z,18.57
2016-09-06T05:06:08.892Z,18.44
2016-09-06T05:07:08.908Z,18.5
2016-09-06T05:08:08.867Z,18.5
2016-09-06T05:09:08.933Z,18.57
2016-09-06T05:10:08.843Z,18.55
2016-09-06T05:11:08.774Z,18.55
2016-09-06T05:12:23.825Z,18.7
2016-09-06T05:14:08.729Z,18.9
2016-09-06T05:15:08.678Z,18.72
2016-09-06T05:16:08.668Z,18.68
2016-09-06T05:17:08.666Z,18.68
2016-09-06T05:18:08.568Z,18.67
2016-09-06T05:19:09.053Z,18.77
2016-09-06T05:20:09.297Z,18.86
2016-09-06T05:21:08.501Z,18.83
2016-09-06T05:22:08.874Z,19.05
2016-09-06T05:23:08.450Z,19.21
2016-09-06T05:24:08.428Z,19.29
2016-09-06T05:25:08.409Z,19.32
2016-09-06T05:26:08.384Z,19.14
2016-09-06T05:27:08.350Z,18.97
2016-09-06T05:29:08.288Z,18.83
2016-09-06T05:30:08.300Z,18.84
2016-09-06T05:31:08.476Z,18.76
2016-09-06T05:32:08.582Z,18.74
2016-09-06T05:33:08.189Z,18.73
2016-09-06T05:34:08.186Z,18.83
2016-09-06T05:35:08.519Z,18.91
2016-09-06T05:36:08.128Z,19.15
2016-09-06T05:37:22.808Z,19.15
2016-09-06T05:38:08.419Z,19.13
2016-09-06T05:39:08.039Z,19.08
2016-09-06T05:40:08.021Z,18.99
2016-09-06T05:41:08.001Z,19.06
2016-09-06T05:42:08.056Z,18.97
2016-09-06T05:43:07.930Z,18.92
2016-09-06T05:44:07.926Z,18.91
2016-09-06T05:45:07.923Z,18.98
2016-09-06T05:47:07.827Z,19.43
2016-09-06T05:48:07.819Z,19.42
2016-09-06T05:49:07.794Z,19.46
2016-09-06T05:50:08.146Z,19.42
2016-09-06T05:51:07.722Z,19.47
2016-09-06T05:52:07.724Z,19.61
2016-09-06T05:53:07.677Z,19.61
2016-09-06T05:54:07.633Z,19.63
2016-09-06T05:55:08.060Z,19.68
2016-09-06T05:56:07.696Z,19.83
2016-09-06T05:57:07.648Z,19.94
2016-09-06T05:58:07.516Z,19.9
2016-09-06T05:59:07.578Z,19.98
2016-09-06T06:00:07.486Z,19.76
2016-09-06T06:01:07.461Z,19.54
2016-09-06T06:02:07.458Z,19.46
2016-09-06T06:03:07.419Z,19.39
2016-09-06T06:04:07.754Z,19.36
2016-09-06T06:05:07.707Z,19.25
2016-09-06T06:06:07.485Z,19.21
2016-09-06T06:07:07.336Z,19.28
2016-09-06T06:08:07.306Z,19.21
2016-09-06T06:09:07.298Z,19.35
2016-09-06T06:10:07.763Z,19.4
2016-09-06T06:11:07.265Z,19.4
2016-09-06T06:12:07.528Z,19.51
2016-09-06T06:13:07.495Z,19.48
2016-09-06T06:14:07.162Z,19.57
2016-09-06T06:15:07.511Z,19.53
2016-09-06T06:17:07.052Z,19.65
2016-09-06T06:19:07.123Z,20
2016-09-06T06:20:07.617Z,20.02
2016-09-06T06:21:08.495Z,19.88
2016-09-06T06:22:06.904Z,19.86
2016-09-06T06:23:07.370Z,20.06
2016-09-06T06:24:21.561Z,20.12
2016-09-06T06:25:07.067Z,20.09
2016-09-06T06:26:06.796Z,20.09
2016-09-06T06:27:21.484Z,20.09
2016-09-06T06:28:07.086Z,20.12
2016-09-06T06:29:07.877Z,20.23
2016-09-06T06:30:07.522Z,20.2
2016-09-06T06:31:07.075Z,20.16
2016-09-06T06:32:06.642Z,20.1
2016-09-06T06:33:07.094Z,20.13
2016-09-06T06:34:07.820Z,20.27
2016-09-06T06:35:07.889Z,20.28
2016-09-06T06:36:06.526Z,20.41
2016-09-06T06:37:06.771Z,20.38
2016-09-06T06:38:06.491Z,20.41
2016-09-06T06:39:06.497Z,20.41
2016-09-06T06:40:06.419Z,20.56
2016-09-06T06:41:06.404Z,20.53
2016-09-06T06:42:06.471Z,20.51
2016-09-06T06:43:06.410Z,20.74
2016-09-06T06:44:06.317Z,20.66
2016-09-06T06:45:06.418Z,20.62
2016-09-06T06:47:06.321Z,20.71
2016-09-06T06:48:20.950Z,20.83
2016-09-06T06:49:06.282Z,20.91
2016-09-06T06:50:06.188Z,20.96
2016-09-06T06:51:06.557Z,21.11
2016-09-06T06:52:06.306Z,21.14
2016-09-06T06:53:06.216Z,21.05
2016-09-06T06:54:06.435Z,21.16
2016-09-06T06:55:20.796Z,21.26
2016-09-06T06:56:06.023Z,21.32
2016-09-06T06:57:06.053Z,21.41
2016-09-06T06:58:06.035Z,21.29
2016-09-06T06:59:05.935Z,21.5
2016-09-06T07:00:05.934Z,21.53
2016-09-06T07:01:05.925Z,21.57
2016-09-06T07:02:05.934Z,21.53
2016-09-06T07:03:05.860Z,21.59
2016-09-06T07:04:05.839Z,21.59
2016-09-06T07:05:06.189Z,21.57
2016-09-06T07:06:05.758Z,21.59
2016-09-06T07:07:05.772Z,21.69
2016-09-06T07:08:06.234Z,21.78
2016-09-06T07:09:05.711Z,21.81
2016-09-06T07:10:20.973Z,21.79
2016-09-06T07:11:05.722Z,21.81
2016-09-06T07:12:06.038Z,21.79
2016-09-06T07:13:05.664Z,21.85
2016-09-06T07:14:05.596Z,21.95
2016-09-06T07:15:05.598Z,21.83
2016-09-06T07:16:05.534Z,22.09
2016-09-06T07:17:05.489Z,22.17
2016-09-06T07:19:05.458Z,22.2
2016-09-06T07:20:05.598Z,22.31
2016-09-06T07:21:05.792Z,22.1
2016-09-06T07:22:05.429Z,22.04
2016-09-06T07:23:05.402Z,22.27
2016-09-06T07:24:05.332Z,22.34
2016-09-06T07:25:05.395Z,22.32
2016-09-06T07:26:11.064Z,22.39
2016-09-06T07:27:05.325Z,22.44
2016-09-06T07:28:05.209Z,22.46
2016-09-06T07:29:05.187Z,22.57
2016-09-06T07:30:05.180Z,22.64
2016-09-06T07:31:05.181Z,22.67
2016-09-06T07:32:06.408Z,22.69
2016-09-06T07:33:05.966Z,22.74
2016-09-06T07:34:05.113Z,22.84
2016-09-06T07:35:05.168Z,22.78
2016-09-06T07:36:05.086Z,22.74
2016-09-06T07:37:05.417Z,22.64
2016-09-06T07:38:05.057Z,22.69
2016-09-06T07:39:05.119Z,22.9
2016-09-06T07:40:05.351Z,22.83
2016-09-06T07:41:05.129Z,22.9
2016-09-06T07:42:05.306Z,23.07
2016-09-06T07:43:04.945Z,23.04
2016-09-06T07:45:05.619Z,23.14
2016-09-06T07:46:05.557Z,23.19
2016-09-06T07:47:05.478Z,23.22
2016-09-06T07:48:04.978Z,23.09
2016-09-06T07:49:06.229Z,23.05
2016-09-06T07:50:05.243Z,23.02
2016-09-06T07:51:05.654Z,23.04
2016-09-06T07:52:04.730Z,23.29
2016-09-06T07:53:05.864Z,23.34
2016-09-06T07:54:04.622Z,23.32
2016-09-06T07:55:19.453Z,23.34
2016-09-06T07:56:05.244Z,23.29
2016-09-06T07:57:04.499Z,23.32
2016-09-06T07:58:05.139Z,23.34
2016-09-06T07:59:05.044Z,23.31
2016-09-06T08:00:04.929Z,23.35
2016-09-06T08:01:04.752Z,23.39
2016-09-06T08:02:04.965Z,23.39
2016-09-06T08:03:05.864Z,23.34
2016-09-06T08:04:04.673Z,23.31
2016-09-06T08:05:04.399Z,23.52
2016-09-06T08:06:04.359Z,23.4
2016-09-06T08:07:04.664Z,23.5
2016-09-06T08:08:18.969Z,23.65
2016-09-06T08:09:18.955Z,23.61
2016-09-06T08:10:05.134Z,23.62
2016-09-06T08:11:04.202Z,23.55
2016-09-06T08:12:04.156Z,23.57
2016-09-06T08:13:04.763Z,23.52
2016-09-06T08:14:05.672Z,23.46
2016-09-06T08:15:06.180Z,23.55
2016-09-06T08:16:18.755Z,23.67
2016-09-06T08:17:04.023Z,23.64
2016-09-06T08:18:04.040Z,23.71
2016-09-06T08:19:03.975Z,23.7
2016-09-06T08:20:03.974Z,23.57
2016-09-06T08:21:04.286Z,23.64
2016-09-06T08:22:03.935Z,23.58
2016-09-06T08:23:03.854Z,23.65
2016-09-06T08:24:03.816Z,23.64
2016-09-06T08:25:03.826Z,23.58
2016-09-06T08:26:03.780Z,23.77
2016-09-06T08:27:03.773Z,23.68
2016-09-06T08:28:03.747Z,23.65
2016-09-06T08:29:03.842Z,23.83
2016-09-06T08:30:03.708Z,23.79
2016-09-06T08:31:03.672Z,23.95
2016-09-06T08:32:03.667Z,23.9
2016-09-06T08:33:03.948Z,23.98
2016-09-06T08:34:03.735Z,23.92
2016-09-06T08:35:03.658Z,23.92
2016-09-06T08:36:03.790Z,23.89
2016-09-06T08:37:03.771Z,23.79
2016-09-06T08:38:03.859Z,23.83
2016-09-06T08:39:03.459Z,23.75
2016-09-06T08:40:03.426Z,23.87
2016-09-06T08:41:03.412Z,23.98
2016-09-06T08:42:03.392Z,23.8
2016-09-06T08:44:03.319Z,23.61
2016-09-06T08:45:03.855Z,23.68
2016-09-06T08:46:03.283Z,23.62
2016-09-06T08:47:03.615Z,23.62
2016-09-06T08:48:03.288Z,23.75
2016-09-06T08:49:03.245Z,23.64
2016-09-06T08:50:03.187Z,23.79
2016-09-06T08:51:03.173Z,23.82
2016-09-06T08:52:03.184Z,23.86
2016-09-06T08:53:03.099Z,23.85
2016-09-06T08:54:03.087Z,23.79
2016-09-06T08:55:03.047Z,23.92
2016-09-06T08:57:03.011Z,23.95
2016-09-06T08:58:03.100Z,24.08
2016-09-06T08:59:02.967Z,23.92
2016-09-06T09:00:02.996Z,24.07
2016-09-06T09:01:02.902Z,23.95
2016-09-06T09:02:02.916Z,23.98
2016-09-06T09:03:03.026Z,24.07
2016-09-06T09:04:03.262Z,24.17
2016-09-06T09:05:03.168Z,23.94
2016-09-06T09:06:02.824Z,23.94
2016-09-06T09:07:02.791Z,24.14
2016-09-06T09:08:02.947Z,24.07
2016-09-06T09:09:02.882Z,24.1
2016-09-06T09:10:03.125Z,23.89
2016-09-06T09:11:02.679Z,23.95
2016-09-06T09:12:17.385Z,23.94
2016-09-06T09:13:02.657Z,24.04
2016-09-06T09:14:02.612Z,24.04
2016-09-06T09:15:02.853Z,23.83
2016-09-06T09:16:02.939Z,23.94
2016-09-06T09:17:03.013Z,24.05
2016-09-06T09:18:02.506Z,24.17
2016-09-06T09:19:17.207Z,24.16
2016-09-06T09:21:17.435Z,24.26
2016-09-06T09:22:02.790Z,24.24
2016-09-06T09:23:02.597Z,24.13
2016-09-06T09:25:02.309Z,24.19
2016-09-06T09:26:02.590Z,24.19
2016-09-06T09:27:02.739Z,24.27
2016-09-06T09:28:02.497Z,24.22
2016-09-06T09:29:02.638Z,24.23
2016-09-06T09:31:02.401Z,24.35
2016-09-06T09:32:16.884Z,24.52
2016-09-06T09:33:02.247Z,24.45
2016-09-06T09:34:02.149Z,24.42
2016-09-06T09:35:02.117Z,24.47
2016-09-06T09:36:02.053Z,24.41
2016-09-06T09:37:02.828Z,24.2
2016-09-06T09:38:02.869Z,24.22
2016-09-06T09:39:02.153Z,24.2
2016-09-06T09:40:02.032Z,24.17
2016-09-06T09:41:16.748Z,24.35
2016-09-06T09:42:01.887Z,24.32
2016-09-06T09:43:01.889Z,24.5
2016-09-06T09:44:01.866Z,24.47
2016-09-06T09:45:01.859Z,24.47
2016-09-06T09:46:01.866Z,24.52
2016-09-06T09:47:02.164Z,24.57
2016-09-06T09:48:01.759Z,24.57
2016-09-06T09:49:02.781Z,24.57
2016-09-06T09:50:01.715Z,24.59
2016-09-06T09:51:01.663Z,24.57
2016-09-06T09:52:01.658Z,24.53
2016-09-06T09:53:01.669Z,24.5
2016-09-06T09:54:01.633Z,24.5
2016-09-06T09:55:01.616Z,24.57
2016-09-06T09:56:01.598Z,24.49
2016-09-06T09:57:01.509Z,24.54
2016-09-06T09:58:01.538Z,24.54
2016-09-06T10:00:01.439Z,24.57
2016-09-06T10:01:01.471Z,24.64
2016-09-06T10:02:01.433Z,24.6
2016-09-06T10:03:01.877Z,24.52
2016-09-06T10:04:01.362Z,24.54
2016-09-06T10:05:01.338Z,24.59
2016-09-06T10:06:01.475Z,24.67
2016-09-06T10:07:01.275Z,24.83
2016-09-06T10:08:01.660Z,24.79
2016-09-06T10:09:01.270Z,24.75
2016-09-06T10:10:01.225Z,24.53
2016-09-06T10:11:01.189Z,24.41
2016-09-06T10:12:01.161Z,24.53
2016-09-06T10:13:01.177Z,24.69
2016-09-06T10:14:01.125Z,24.69
2016-09-06T10:15:01.092Z,24.71
2016-09-06T10:16:01.192Z,24.54
2016-09-06T10:17:01.036Z,24.71
2016-09-06T10:18:01.422Z,24.68
2016-09-06T10:19:00.983Z,24.45
2016-09-06T10:20:15.737Z,24.64
2016-09-06T10:21:00.937Z,24.56
2016-09-06T10:22:00.928Z,24.67
2016-09-06T10:23:00.939Z,24.82
2016-09-06T10:24:00.880Z,24.85
2016-09-06T10:25:00.864Z,24.69
2016-09-06T10:26:01.252Z,24.79
2016-09-06T10:27:00.798Z,24.73
2016-09-06T10:28:00.793Z,24.6
2016-09-06T10:29:00.767Z,24.47
2016-09-06T10:30:00.796Z,24.37
2016-09-06T10:31:00.711Z,24.45
2016-09-06T10:32:01.028Z,24.6
2016-09-06T10:33:15.679Z,24.53
2016-09-06T10:34:00.643Z,24.45
2016-09-06T10:35:15.334Z,24.69
2016-09-06T10:36:00.609Z,24.85
2016-09-06T10:37:00.582Z,24.75
2016-09-06T10:38:00.563Z,24.91
2016-09-06T10:39:01.056Z,24.97
2016-09-06T10:40:15.196Z,25
2016-09-06T10:41:00.471Z,25.05
2016-09-06T10:42:00.444Z,24.94
2016-09-06T10:43:00.453Z,24.82
2016-09-06T10:44:00.422Z,24.71
2016-09-06T10:45:00.357Z,24.8
2016-09-06T10:46:15.080Z,24.92
2016-09-06T10:47:00.362Z,24.95
2016-09-06T10:48:00.307Z,24.94
2016-09-06T10:49:00.275Z,24.95
2016-09-06T10:50:00.300Z,24.69
2016-09-06T10:51:00.421Z,24.67
2016-09-06T10:52:00.300Z,24.87
2016-09-06T10:53:00.328Z,24.98
2016-09-06T10:54:00.258Z,24.92
2016-09-06T10:55:00.370Z,25.02
2016-09-06T10:56:00.259Z,24.95
2016-09-06T10:57:00.172Z,24.95
2016-09-06T10:58:00.524Z,24.83
2016-09-06T10:59:00.049Z,24.64
2016-09-06T11:00:00.531Z,24.68
2016-09-06T11:01:14.720Z,24.83
2016-09-06T11:01:59.936Z,24.88
2016-09-06T11:02:59.938Z,24.8
2016-09-06T11:03:59.914Z,24.85
2016-09-06T11:05:29.317Z,24.68
2016-09-06T11:05:59.844Z,24.77
2016-09-06T11:06:59.834Z,25.09
2016-09-06T11:07:59.812Z,25.02
2016-09-06T11:09:00.292Z,25.16
2016-09-06T11:10:00.446Z,25.16
2016-09-06T11:10:59.758Z,25.17
2016-09-06T11:12:14.472Z,25.2
2016-09-06T11:12:59.702Z,25.24
2016-09-06T11:13:59.827Z,25.3
2016-09-06T11:14:59.657Z,25.3
2016-09-06T11:16:00.012Z,25.34
2016-09-06T11:16:59.613Z,25.5
2016-09-06T11:17:59.580Z,25.31
2016-09-06T11:18:59.561Z,25.2
2016-09-06T11:19:59.514Z,25.32
2016-09-06T11:21:14.743Z,25.15
2016-09-06T11:21:59.455Z,25.28
2016-09-06T11:22:59.440Z,25.32
2016-09-06T11:23:59.445Z,25.37
2016-09-06T11:24:59.852Z,25.22
2016-09-06T11:25:59.438Z,25.38
2016-09-06T11:26:59.364Z,25.56
2016-09-06T11:27:59.339Z,25.47
2016-09-06T11:28:59.346Z,25.46
2016-09-06T11:29:59.247Z,25.59
2016-09-06T11:30:59.259Z,25.71
2016-09-06T11:31:59.213Z,25.82
2016-09-06T11:33:14.203Z,25.62
2016-09-06T11:33:59.172Z,25.57
2016-09-06T11:34:59.165Z,25.54
2016-09-06T11:35:59.214Z,25.43
2016-09-06T11:36:59.092Z,25.61
2016-09-06T11:37:59.078Z,25.47
2016-09-06T11:38:59.185Z,25.49
2016-09-06T11:39:59.035Z,25.47
2016-09-06T11:40:59.377Z,25.43
2016-09-06T11:41:59.070Z,25.64
2016-09-06T11:42:59.031Z,25.69
2016-09-06T11:43:59.623Z,25.72
2016-09-06T11:44:58.924Z,25.75
2016-09-06T11:45:58.899Z,25.77
2016-09-06T11:46:58.918Z,25.86
2016-09-06T11:47:58.918Z,26.02
2016-09-06T11:48:59.392Z,25.8
2016-09-06T11:49:58.820Z,25.61
2016-09-06T11:50:59.168Z,25.62
2016-09-06T11:51:59.401Z,25.61
2016-09-06T11:52:58.739Z,25.62
2016-09-06T11:53:58.697Z,25.52
2016-09-06T11:55:13.419Z,25.65
2016-09-06T11:55:58.788Z,25.65
2016-09-06T11:56:58.727Z,25.47
2016-09-06T11:57:59.189Z,25.34
2016-09-06T11:58:58.600Z,25.47
2016-09-06T11:59:58.583Z,25.82
2016-09-06T12:00:58.575Z,25.87
2016-09-06T12:01:58.493Z,26.27
2016-09-06T12:02:58.910Z,27.06
2016-09-06T12:03:58.561Z,27.71
2016-09-06T12:04:58.469Z,27.91
2016-09-06T12:05:58.425Z,27.71
2016-09-06T12:06:59.070Z,27.48
2016-09-06T12:07:58.808Z,27.32
2016-09-06T12:08:58.338Z,27.21
2016-09-06T12:09:58.369Z,27.28
2016-09-06T12:10:58.605Z,27.32
2016-09-06T12:11:58.294Z,27.16
2016-09-06T12:12:58.341Z,27.11
2016-09-06T12:13:58.268Z,26.94
2016-09-06T12:14:58.238Z,26.62
2016-09-06T12:15:58.235Z,26.68
2016-09-06T12:16:58.185Z,26.67
2016-09-06T12:17:58.145Z,26.52
2016-09-06T12:18:58.504Z,26.86
2016-09-06T12:19:58.091Z,26.96
2016-09-06T12:21:13.091Z,26.68
2016-09-06T12:21:58.269Z,26.79
2016-09-06T12:22:58.005Z,26.69
2016-09-06T12:23:58.003Z,26.69
2016-09-06T12:24:57.963Z,26.67
2016-09-06T12:25:57.950Z,26.67
2016-09-06T12:26:57.947Z,26.57
2016-09-06T12:27:57.963Z,26.64
2016-09-06T12:28:57.893Z,26.81
2016-09-06T12:29:57.890Z,26.58
2016-09-06T12:30:57.831Z,26.52
2016-09-06T12:32:12.586Z,26.35
2016-09-06T12:32:58.083Z,26.29
2016-09-06T12:33:57.747Z,26.21
2016-09-06T12:34:57.723Z,26.15
2016-09-06T12:35:57.730Z,26.25
2016-09-06T12:36:58.351Z,26.21
2016-09-06T12:37:58.429Z,25.99
2016-09-06T12:38:57.631Z,26.35
2016-09-06T12:39:57.615Z,26.36
2016-09-06T12:40:57.667Z,26.31
2016-09-06T12:41:57.924Z,26.25
2016-09-06T12:42:57.524Z,26.09
2016-09-06T12:43:57.568Z,26.09
2016-09-06T12:44:57.516Z,26.24
2016-09-06T12:45:57.485Z,26.01
2016-09-06T12:47:12.192Z,26.08
2016-09-06T12:47:57.431Z,25.98
2016-09-06T12:49:12.480Z,25.99
2016-09-06T12:49:57.371Z,25.94
2016-09-06T12:51:12.515Z,25.57
2016-09-06T12:51:57.339Z,25.52
2016-09-06T12:52:57.345Z,25.62
2016-09-06T12:53:57.288Z,25.56
2016-09-06T12:54:57.257Z,25.52
2016-09-06T12:55:57.267Z,25.65
2016-09-06T12:56:57.239Z,26.04
2016-09-06T12:57:57.649Z,25.91
2016-09-06T12:58:57.648Z,25.82
2016-09-06T12:59:57.195Z,25.93
2016-09-06T13:01:11.889Z,25.99
2016-09-06T13:01:57.208Z,26.02
2016-09-06T13:02:57.089Z,26.02
2016-09-06T13:03:57.432Z,26.17
2016-09-06T13:04:57.126Z,26.22
2016-09-06T13:05:57.008Z,26.22
2016-09-06T13:06:56.981Z,26.36
2016-09-06T13:07:56.975Z,26.39
2016-09-06T13:08:57.316Z,26.55
2016-09-06T13:09:56.902Z,26.55
2016-09-06T13:11:03.588Z,26.81
2016-09-06T13:11:56.870Z,26.89
2016-09-06T13:12:57.599Z,26.96